createdAt,value
2022-12-19T00:01:20.716Z,-1.92
2022-12-19T00:03:48.845Z,-1.92
2022-12-19T00:06:15.861Z,-1.85
2022-12-19T00:08:43.053Z,-1.75
2022-12-19T00:11:10.101Z,-1.77
2022-12-19T00:13:40.912Z,-1.78
2022-12-19T00:16:10.936Z,-1.78
2022-12-19T00:18:39.456Z,-1.80
2022-12-19T00:21:06.206Z,-1.79
2022-12-19T00:23:33.536Z,-1.85
2022-12-19T00:26:14.650Z,-1.83
2022-12-19T00:28:42.208Z,-1.80
2022-12-19T00:31:08.752Z,-1.84
2022-12-19T00:33:35.294Z,-1.84
2022-12-19T00:36:06.436Z,-1.85
2022-12-19T00:38:32.974Z,-1.81
2022-12-19T00:41:13.049Z,-1.79
2022-12-19T00:43:39.936Z,-1.81
2022-12-19T00:46:08.183Z,-1.80
2022-12-19T00:48:34.737Z,-1.80
2022-12-19T00:51:06.128Z,-1.77
2022-12-19T00:53:34.296Z,-1.74
2022-12-19T00:56:08.860Z,-1.72
2022-12-19T00:58:35.940Z,-1.71
2022-12-19T01:01:09.898Z,-1.67
2022-12-19T01:03:36.428Z,-1.68
2022-12-19T01:06:02.883Z,-1.65
2022-12-19T01:08:30.129Z,-1.64
2022-12-19T01:10:57.985Z,-1.64
2022-12-19T01:13:25.426Z,-1.65
2022-12-19T01:15:51.902Z,-1.63
2022-12-19T01:18:18.369Z,-1.61
2022-12-19T01:20:47.337Z,-1.59
2022-12-19T01:23:16.810Z,-1.64
2022-12-19T01:25:45.845Z,-1.61
2022-12-19T01:28:14.615Z,-1.64
2022-12-19T01:30:42.139Z,-1.58
2022-12-19T01:33:13.067Z,-1.60
2022-12-19T01:35:40.010Z,-1.58
2022-12-19T01:38:08.347Z,-1.58
2022-12-19T01:40:35.657Z,-1.55
2022-12-19T01:43:02.254Z,-1.54
2022-12-19T01:45:35.502Z,-1.49
2022-12-19T01:48:22.832Z,-1.49
2022-12-19T01:51:01.137Z,-1.48
2022-12-19T01:53:48.531Z,-1.47
2022-12-19T01:56:15.778Z,-1.50
2022-12-19T01:58:46.478Z,-1.46
2022-12-19T02:01:14.192Z,-1.45
2022-12-19T02:03:40.764Z,-1.43
2022-12-19T02:06:07.951Z,-1.40
2022-12-19T02:08:34.433Z,-1.35
2022-12-19T02:11:01.457Z,-1.37
2022-12-19T02:13:27.962Z,-1.34
2022-12-19T02:16:13.605Z,-1.31
2022-12-19T02:18:49.182Z,-1.27
2022-12-19T02:21:19.058Z,-1.29
2022-12-19T02:24:03.860Z,-1.34
2022-12-19T02:27:27.065Z,-1.29
2022-12-19T02:29:53.633Z,-1.31
2022-12-19T02:32:23.961Z,-1.33
2022-12-19T02:34:56.977Z,-1.28
2022-12-19T02:37:29.429Z,-1.29
2022-12-19T02:40:06.968Z,-1.33
2022-12-19T02:42:39.147Z,-1.39
2022-12-19T02:45:06.949Z,-1.40
2022-12-19T02:47:33.450Z,-1.38
2022-12-19T02:49:59.959Z,-1.38
2022-12-19T02:52:26.318Z,-1.40
2022-12-19T02:54:55.257Z,-1.37
2022-12-19T02:57:38.193Z,-1.38
2022-12-19T03:00:04.734Z,-1.42
2022-12-19T03:02:59.827Z,-1.39
2022-12-19T03:05:42.875Z,-1.41
2022-12-19T03:08:27.796Z,-1.43
2022-12-19T03:10:57.296Z,-1.44
2022-12-19T03:13:44.432Z,-1.40
2022-12-19T03:16:11.003Z,-1.38
2022-12-19T03:19:14.573Z,-1.40
2022-12-19T03:21:46.073Z,-1.37
2022-12-19T03:24:12.854Z,-1.38
2022-12-19T03:26:50.343Z,-1.45
2022-12-19T03:29:26.336Z,-1.37
2022-12-19T03:31:52.797Z,-1.36
2022-12-19T03:34:25.271Z,-1.39
2022-12-19T03:36:56.472Z,-1.35
2022-12-19T03:39:23.589Z,-1.37
2022-12-19T03:42:08.589Z,-1.36
2022-12-19T03:44:36.625Z,-1.34
2022-12-19T03:47:16.090Z,-1.30
2022-12-19T03:49:42.522Z,-1.31
2022-12-19T03:52:34.661Z,-1.30
2022-12-19T03:55:13.214Z,-1.37
2022-12-19T03:58:10.674Z,-1.33
2022-12-19T04:00:38.662Z,-1.26
2022-12-19T04:03:05.160Z,-1.24
2022-12-19T04:05:31.687Z,-1.30
2022-12-19T04:08:04.699Z,-1.24
2022-12-19T04:10:31.133Z,-1.25
2022-12-19T04:13:00.257Z,-1.24
2022-12-19T04:15:36.171Z,-1.24
2022-12-19T04:18:03.520Z,-1.25
2022-12-19T04:20:31.305Z,-1.21
2022-12-19T04:23:17.912Z,-1.22
2022-12-19T04:25:46.708Z,-1.15
2022-12-19T04:28:22.230Z,-1.20
2022-12-19T04:30:48.707Z,-1.13
2022-12-19T04:33:15.449Z,-1.11
2022-12-19T04:35:41.902Z,-1.13
2022-12-19T04:38:08.499Z,-1.11
2022-12-19T04:40:40.906Z,-1.06
2022-12-19T04:43:08.344Z,-0.94
2022-12-19T04:45:34.857Z,-0.95
2022-12-19T04:48:02.409Z,-0.91
2022-12-19T04:50:28.950Z,-0.91
2022-12-19T04:52:58.458Z,-0.90
2022-12-19T04:55:24.934Z,-0.81
2022-12-19T04:57:51.427Z,-0.82
2022-12-19T05:00:18.545Z,-0.84
2022-12-19T05:02:45.709Z,-0.81
2022-12-19T05:05:12.330Z,-0.82
2022-12-19T05:07:38.835Z,-0.84
2022-12-19T05:10:05.979Z,-0.84
2022-12-19T05:12:32.449Z,-0.90
2022-12-19T05:14:58.929Z,-0.89
2022-12-19T05:17:25.460Z,-0.92
2022-12-19T05:19:52.025Z,-0.90
2022-12-19T05:22:18.494Z,-0.89
2022-12-19T05:24:45.000Z,-0.93
2022-12-19T05:27:11.459Z,-0.89
2022-12-19T05:29:37.924Z,-0.83
2022-12-19T05:32:04.737Z,-0.82
2022-12-19T05:34:31.304Z,-0.78
2022-12-19T05:36:57.840Z,-0.73
2022-12-19T05:39:24.607Z,-0.71
2022-12-19T05:41:51.112Z,-0.65
2022-12-19T05:44:17.593Z,-0.64
2022-12-19T05:46:44.125Z,-0.70
2022-12-19T05:49:10.644Z,-0.70
2022-12-19T05:51:37.397Z,-0.71
2022-12-19T05:54:04.004Z,-0.68
2022-12-19T05:56:30.480Z,-0.71
2022-12-19T05:58:57.364Z,-0.66
2022-12-19T06:01:25.420Z,-0.65
2022-12-19T06:03:52.152Z,-0.65
2022-12-19T06:06:20.361Z,-0.60
2022-12-19T06:08:46.886Z,-0.56
2022-12-19T06:11:13.593Z,-0.63
2022-12-19T06:13:40.338Z,-0.60
2022-12-19T06:16:09.700Z,-0.65
2022-12-19T06:18:40.424Z,-0.63
2022-12-19T06:21:27.830Z,-0.60
2022-12-19T06:23:54.650Z,-0.59
2022-12-19T06:26:21.224Z,-0.55
2022-12-19T06:28:48.856Z,-0.49
2022-12-19T06:31:15.480Z,-0.54
2022-12-19T06:33:42.076Z,-0.49
2022-12-19T06:36:11.884Z,-0.45
2022-12-19T06:38:38.358Z,-0.47
2022-12-19T06:41:23.908Z,-0.45
2022-12-19T06:43:53.502Z,-0.44
2022-12-19T06:46:20.396Z,-0.40
2022-12-19T06:48:47.234Z,-0.42
2022-12-19T06:51:13.730Z,-0.41
2022-12-19T06:53:40.380Z,-0.41
2022-12-19T06:56:07.085Z,-0.32
2022-12-19T06:58:33.838Z,-0.32
2022-12-19T07:01:01.435Z,-0.35
2022-12-19T07:03:36.518Z,-0.37
2022-12-19T07:06:03.750Z,-0.38
2022-12-19T07:08:30.310Z,-0.36
2022-12-19T07:10:57.317Z,-0.30
2022-12-19T07:13:23.826Z,-0.28
2022-12-19T07:15:51.172Z,-0.20
2022-12-19T07:18:17.662Z,-0.20
2022-12-19T07:20:45.371Z,-0.19
2022-12-19T07:23:14.398Z,-0.22
2022-12-19T07:25:40.902Z,-0.21
2022-12-19T07:28:07.435Z,-0.22
2022-12-19T07:30:33.928Z,-0.20
2022-12-19T07:33:00.410Z,-0.19
2022-12-19T07:35:26.887Z,-0.24
2022-12-19T07:37:53.368Z,-0.21
2022-12-19T07:40:20.333Z,-0.20
2022-12-19T07:42:46.862Z,-0.17
2022-12-19T07:45:13.823Z,-0.17
2022-12-19T07:47:40.295Z,-0.10
2022-12-19T07:50:06.885Z,-0.07
2022-12-19T07:52:33.371Z,-0.03
2022-12-19T07:54:59.869Z,-0.03
2022-12-19T07:57:26.333Z,-0.06
2022-12-19T07:59:52.964Z,-0.03
2022-12-19T08:02:19.612Z,0.02
2022-12-19T08:04:46.210Z,0.06
2022-12-19T08:07:12.789Z,0.13
2022-12-19T08:09:39.294Z,0.14
2022-12-19T08:12:05.990Z,0.16
2022-12-19T08:14:32.469Z,0.15
2022-12-19T08:19:45.472Z,0.18
2022-12-19T08:22:11.977Z,0.22
2022-12-19T08:24:38.447Z,0.19
2022-12-19T08:27:04.917Z,0.26
2022-12-19T08:29:31.455Z,0.25
2022-12-19T08:31:57.987Z,0.29
2022-12-19T08:34:24.526Z,0.30
2022-12-19T08:36:51.085Z,0.37
2022-12-19T08:39:17.572Z,0.34
2022-12-19T08:41:44.649Z,0.38
2022-12-19T08:44:11.310Z,0.42
2022-12-19T08:46:37.866Z,0.42
2022-12-19T08:49:04.370Z,0.44
2022-12-19T08:51:31.069Z,0.50
2022-12-19T08:53:58.323Z,0.52
2022-12-19T08:56:24.808Z,0.55
2022-12-19T08:58:51.616Z,0.66
2022-12-19T09:01:19.298Z,0.63
2022-12-19T09:04:26.804Z,0.63
2022-12-19T09:06:33.034Z,0.67
2022-12-19T09:09:00.526Z,0.69
2022-12-19T09:11:27.306Z,0.67
2022-12-19T09:13:55.617Z,0.67
2022-12-19T09:16:22.506Z,0.62
2022-12-19T09:18:50.630Z,0.67
2022-12-19T09:21:17.890Z,0.73
2022-12-19T09:23:48.000Z,0.76
2022-12-19T09:26:16.304Z,0.78
2022-12-19T09:28:42.896Z,0.79
2022-12-19T09:31:14.095Z,0.86
2022-12-19T09:33:43.716Z,0.89
2022-12-19T09:36:15.448Z,0.87
2022-12-19T09:38:42.182Z,0.94
2022-12-19T09:41:23.860Z,0.91
2022-12-19T09:44:05.577Z,1.07
2022-12-19T09:47:12.065Z,1.10
2022-12-19T09:49:41.895Z,1.04
2022-12-19T09:52:33.107Z,1.12
2022-12-19T09:55:26.183Z,1.05
2022-12-19T09:57:57.834Z,1.13
2022-12-19T10:00:32.466Z,1.15
2022-12-19T10:03:00.776Z,1.13
2022-12-19T10:07:11.195Z,1.14
2022-12-19T10:08:56.542Z,1.18
2022-12-19T10:12:38.589Z,1.14
2022-12-19T10:14:37.401Z,1.15
2022-12-19T10:17:42.350Z,1.10
2022-12-19T10:20:27.275Z,1.16
2022-12-19T10:23:01.486Z,1.14
2022-12-19T10:25:52.188Z,1.24
2022-12-19T10:28:32.757Z,1.21
2022-12-19T10:31:18.837Z,1.26
2022-12-19T10:33:50.109Z,1.31
2022-12-19T10:36:16.664Z,1.34
2022-12-19T10:38:59.465Z,1.36
2022-12-19T10:41:27.908Z,1.31
2022-12-19T10:44:02.560Z,1.32
2022-12-19T10:46:37.527Z,1.37
2022-12-19T10:49:30.814Z,1.39
2022-12-19T10:52:01.084Z,1.39
2022-12-19T10:54:39.659Z,1.43
2022-12-19T10:57:21.760Z,1.44
2022-12-19T10:59:54.644Z,1.43
2022-12-19T11:02:54.323Z,1.45
2022-12-19T11:05:29.137Z,1.46
2022-12-19T11:08:07.972Z,1.41
2022-12-19T11:11:16.897Z,1.44
2022-12-19T11:19:09.022Z,1.48
2022-12-19T11:20:40.373Z,1.46
2022-12-19T11:29:19.251Z,1.48
2022-12-19T11:29:30.357Z,1.40
2022-12-19T11:29:45.794Z,1.47
2022-12-19T11:30:46.603Z,1.48
2022-12-19T11:33:27.063Z,1.43
2022-12-19T11:35:58.539Z,1.45
2022-12-19T11:38:45.376Z,1.42
2022-12-19T11:41:16.621Z,1.48
2022-12-19T11:43:55.843Z,1.42
2022-12-19T11:46:26.437Z,1.46
2022-12-19T11:49:13.277Z,1.51
2022-12-19T11:51:43.626Z,1.48
2022-12-19T11:54:27.169Z,1.52
2022-12-19T11:56:53.698Z,1.43
2022-12-19T11:59:24.559Z,1.47
2022-12-19T12:02:00.329Z,1.49
2022-12-19T12:04:49.920Z,1.44
2022-12-19T12:07:52.890Z,1.51
2022-12-19T12:13:19.894Z,1.49
2022-12-19T12:20:51.597Z,1.52
2022-12-19T12:29:08.662Z,1.46
2022-12-19T12:31:18.383Z,1.53
2022-12-19T12:31:39.475Z,1.63
2022-12-19T12:31:40.355Z,1.61
2022-12-19T12:31:52.361Z,1.61
2022-12-19T12:35:16.717Z,1.57
2022-12-19T12:38:29.176Z,1.67
2022-12-19T12:41:08.887Z,1.76
2022-12-19T12:43:35.211Z,1.72
2022-12-19T12:46:03.508Z,1.70
2022-12-19T12:48:45.691Z,1.70
2022-12-19T12:51:12.209Z,1.74
2022-12-19T12:53:40.994Z,1.73
2022-12-19T12:56:07.711Z,1.68
2022-12-19T12:58:46.384Z,1.70
2022-12-19T13:01:17.499Z,1.73
2022-12-19T13:03:52.756Z,1.74
2022-12-19T13:06:26.720Z,1.74
2022-12-19T13:09:13.339Z,1.78
2022-12-19T13:12:05.493Z,1.73
2022-12-19T13:14:34.964Z,1.78
2022-12-19T13:17:12.029Z,1.77
2022-12-19T13:19:39.780Z,1.79
2022-12-19T13:22:09.316Z,1.79
2022-12-19T13:24:42.136Z,1.86
2022-12-19T13:27:31.871Z,1.88
2022-12-19T13:30:01.699Z,1.91
2022-12-19T13:32:33.445Z,1.92
2022-12-19T13:35:19.076Z,1.95
2022-12-19T13:40:02.078Z,1.96
2022-12-19T13:40:43.902Z,1.91
2022-12-19T13:43:36.579Z,1.94
2022-12-19T13:46:23.421Z,1.94
2022-12-19T13:48:52.132Z,1.96
2022-12-19T13:51:19.038Z,1.99
2022-12-19T13:53:45.891Z,1.96
2022-12-19T13:56:14.318Z,2.11
2022-12-19T13:58:52.786Z,2.07
2022-12-19T14:01:29.381Z,2.19
2022-12-19T14:03:57.533Z,2.19
2022-12-19T14:06:41.696Z,2.26
2022-12-19T14:11:27.423Z,2.31
2022-12-19T14:13:51.641Z,2.32
2022-12-19T14:15:13.179Z,2.35
2022-12-19T14:17:40.394Z,2.35
2022-12-19T14:21:36.422Z,2.36
2022-12-19T14:23:10.723Z,2.32
2022-12-19T14:28:15.829Z,2.24
2022-12-19T14:28:40.220Z,2.29
2022-12-19T14:31:07.917Z,2.34
2022-12-19T14:33:54.270Z,2.23
2022-12-19T14:36:27.827Z,2.29
2022-12-19T14:39:22.370Z,2.33
2022-12-19T14:42:07.895Z,2.35
2022-12-19T14:52:08.648Z,2.50
2022-12-19T14:52:25.876Z,2.45
2022-12-19T14:54:12.348Z,2.49
2022-12-19T14:54:29.754Z,2.47
2022-12-19T14:59:00.632Z,2.53
2022-12-19T15:01:32.758Z,2.55
2022-12-19T15:04:52.057Z,2.48
2022-12-19T15:07:08.730Z,2.48
2022-12-19T15:11:09.051Z,2.50
2022-12-19T15:14:48.944Z,2.50
2022-12-19T15:16:03.474Z,2.47
2022-12-19T15:18:33.056Z,2.47
2022-12-19T15:21:01.001Z,2.55
2022-12-19T15:23:28.042Z,2.49
2022-12-19T15:26:04.012Z,2.51
2022-12-19T15:28:42.493Z,2.52
2022-12-19T15:31:29.586Z,2.52
2022-12-19T15:36:42.941Z,2.49
2022-12-19T15:39:09.435Z,2.49
2022-12-19T15:41:35.916Z,2.50
2022-12-19T15:44:09.845Z,2.52
2022-12-19T15:46:38.870Z,2.55
2022-12-19T15:49:17.095Z,2.52
2022-12-19T15:51:43.626Z,2.48
2022-12-19T15:54:38.712Z,2.40
2022-12-19T15:56:56.715Z,2.43
2022-12-19T15:59:29.786Z,2.46
2022-12-19T16:02:01.453Z,2.42
2022-12-19T16:04:28.302Z,2.35
2022-12-19T16:06:55.123Z,2.39
2022-12-19T16:09:24.357Z,2.37
2022-12-19T16:11:51.479Z,2.29
2022-12-19T16:14:18.464Z,2.29
2022-12-19T16:16:46.791Z,2.22
2022-12-19T16:19:26.995Z,2.24
2022-12-19T16:21:54.264Z,2.29
2022-12-19T16:24:20.998Z,2.24
2022-12-19T16:26:57.725Z,2.21
2022-12-19T16:29:27.153Z,2.18
2022-12-19T16:31:53.904Z,2.22
2022-12-19T16:34:22.448Z,2.30
2022-12-19T16:36:49.296Z,2.32
2022-12-19T16:39:16.143Z,2.35
2022-12-19T16:41:43.696Z,2.28
2022-12-19T16:44:20.679Z,2.26
2022-12-19T16:46:50.993Z,2.30
2022-12-19T16:49:24.253Z,2.22
2022-12-19T16:51:50.912Z,2.27
2022-12-19T16:54:17.617Z,2.29
2022-12-19T16:56:49.194Z,2.29
2022-12-19T16:59:22.794Z,2.26
2022-12-19T17:01:49.536Z,2.36
2022-12-19T17:04:21.506Z,2.28
2022-12-19T17:06:48.873Z,2.31
2022-12-19T17:09:16.616Z,2.34
2022-12-19T17:11:48.508Z,2.36
2022-12-19T17:14:18.026Z,2.29
2022-12-19T17:16:44.727Z,2.35
2022-12-19T17:19:17.164Z,2.41
2022-12-19T17:21:43.634Z,2.41
2022-12-19T17:24:13.502Z,2.44
2022-12-19T17:26:39.998Z,2.44
2022-12-19T17:29:06.482Z,2.44
2022-12-19T17:31:39.105Z,2.50
2022-12-19T17:34:08.386Z,2.49
2022-12-19T17:36:37.931Z,2.49
2022-12-19T17:39:17.899Z,2.41
2022-12-19T17:41:44.962Z,2.46
2022-12-19T17:44:11.712Z,2.47
2022-12-19T17:46:38.262Z,2.49
2022-12-19T17:49:04.754Z,2.49
2022-12-19T17:51:31.322Z,2.51
2022-12-19T17:53:57.824Z,2.53
2022-12-19T17:56:24.305Z,2.56
2022-12-19T17:58:50.819Z,2.61
2022-12-19T18:01:21.210Z,2.67
2022-12-19T18:03:47.925Z,2.66
2022-12-19T18:06:14.654Z,2.62
2022-12-19T18:08:41.175Z,2.64
2022-12-19T18:11:10.487Z,2.64
2022-12-19T18:13:36.932Z,2.71
2022-12-19T18:16:03.554Z,2.64
2022-12-19T18:18:31.664Z,2.68
2022-12-19T18:20:59.617Z,2.68
2022-12-19T18:23:26.524Z,2.73
2022-12-19T18:25:59.289Z,2.81
2022-12-19T18:28:27.879Z,2.79
2022-12-19T18:30:54.691Z,2.83
2022-12-19T18:33:22.455Z,2.90
2022-12-19T18:35:49.122Z,2.90
2022-12-19T18:38:20.879Z,2.93
2022-12-19T18:40:47.705Z,2.90
2022-12-19T18:43:17.182Z,2.89
2022-12-19T18:45:47.031Z,2.95
2022-12-19T18:48:21.368Z,2.95
2022-12-19T18:50:47.827Z,2.91
2022-12-19T18:53:15.780Z,2.85
2022-12-19T18:55:42.233Z,2.87
2022-12-19T18:58:08.693Z,2.86
2022-12-19T19:00:35.621Z,2.92
2022-12-19T19:03:03.937Z,2.91
2022-12-19T19:05:31.961Z,2.91
2022-12-19T19:08:01.273Z,2.96
2022-12-19T19:10:31.167Z,2.98
2022-12-19T19:12:57.753Z,2.98
2022-12-19T19:15:27.741Z,3.02
2022-12-19T19:17:57.198Z,3.05
2022-12-19T19:20:23.655Z,3.04
2022-12-19T19:22:50.602Z,3.03
2022-12-19T19:25:17.352Z,3.06
2022-12-19T19:27:43.804Z,3.15
2022-12-19T19:30:10.943Z,3.13
2022-12-19T19:32:38.552Z,3.17
2022-12-19T19:35:05.872Z,3.16
2022-12-19T19:37:32.376Z,3.19
2022-12-19T19:39:58.834Z,3.14
2022-12-19T19:42:25.294Z,3.15
2022-12-19T19:44:51.770Z,3.13
2022-12-19T19:47:24.593Z,3.30
2022-12-19T19:49:51.054Z,3.39
2022-12-19T19:52:17.505Z,3.49
2022-12-19T19:54:43.978Z,3.50
2022-12-19T19:57:10.427Z,3.52
2022-12-19T19:59:36.951Z,3.61
2022-12-19T20:02:03.572Z,3.62
2022-12-19T20:04:30.359Z,3.62
2022-12-19T20:06:57.184Z,3.60
2022-12-19T20:09:23.637Z,3.56
2022-12-19T20:11:50.098Z,3.61
2022-12-19T20:14:16.587Z,3.63
2022-12-19T20:16:43.608Z,3.68
2022-12-19T20:19:10.185Z,3.66
2022-12-19T20:21:36.722Z,3.67
2022-12-19T20:24:03.277Z,3.66
2022-12-19T20:26:29.763Z,3.66
2022-12-19T20:28:56.259Z,3.65
2022-12-19T20:31:23.405Z,3.73
2022-12-19T20:33:50.853Z,3.74
2022-12-19T20:36:17.475Z,3.70
2022-12-19T20:38:43.950Z,3.72
2022-12-19T20:41:10.459Z,3.72
2022-12-19T20:43:38.394Z,3.67
2022-12-19T20:46:06.562Z,3.71
2022-12-19T20:48:33.238Z,3.77
2022-12-19T20:51:00.001Z,3.81
2022-12-19T20:53:26.514Z,3.83
2022-12-19T20:55:58.294Z,3.79
2022-12-19T20:58:25.775Z,3.82
2022-12-19T21:00:56.358Z,3.78
2022-12-19T21:03:29.061Z,3.81
2022-12-19T21:05:56.769Z,3.76
2022-12-19T21:08:23.378Z,3.78
2022-12-19T21:10:49.879Z,3.79
2022-12-19T21:13:16.347Z,3.81
2022-12-19T21:15:42.849Z,3.83
2022-12-19T21:18:09.640Z,3.77
2022-12-19T21:20:36.895Z,3.78
2022-12-19T21:23:03.606Z,3.72
2022-12-19T21:25:30.159Z,3.75
2022-12-19T21:27:56.644Z,3.69
2022-12-19T21:30:23.136Z,3.65
2022-12-19T21:32:49.811Z,3.69
2022-12-19T21:35:16.407Z,3.59
2022-12-19T21:37:49.768Z,3.62
2022-12-19T21:40:16.703Z,3.67
2022-12-19T21:42:43.189Z,3.63
2022-12-19T21:45:10.730Z,3.63
2022-12-19T21:47:39.576Z,3.70
2022-12-19T21:50:08.131Z,3.69
2022-12-19T21:52:34.597Z,3.68
2022-12-19T21:55:01.058Z,3.73
2022-12-19T21:57:27.551Z,3.74
2022-12-19T21:59:54.023Z,3.78
2022-12-19T22:02:20.568Z,3.82
2022-12-19T22:04:48.650Z,3.83
2022-12-19T22:07:15.374Z,3.92
2022-12-19T22:09:42.135Z,3.89
2022-12-19T22:12:10.519Z,3.88
2022-12-19T22:14:36.982Z,3.88
2022-12-19T22:17:03.562Z,3.81
2022-12-19T22:19:30.069Z,3.86
2022-12-19T22:21:56.536Z,3.84
2022-12-19T22:24:23.096Z,3.84
2022-12-19T22:26:49.583Z,3.82
2022-12-19T22:29:16.382Z,3.87
2022-12-19T22:31:43.137Z,3.88
2022-12-19T22:34:11.561Z,3.93
2022-12-19T22:36:38.782Z,3.98
2022-12-19T22:39:08.181Z,3.98
2022-12-19T22:41:34.850Z,3.98
2022-12-19T22:44:01.428Z,4.09
2022-12-19T22:46:29.660Z,4.12
2022-12-19T22:48:57.393Z,4.16
2022-12-19T22:51:24.054Z,4.21
2022-12-19T22:53:50.564Z,4.22
2022-12-19T22:56:18.916Z,4.21
2022-12-19T22:58:46.955Z,4.26
2022-12-19T23:01:14.804Z,4.27
2022-12-19T23:03:42.095Z,4.24
2022-12-19T23:06:08.705Z,4.24
2022-12-19T23:08:35.638Z,4.26
2022-12-19T23:11:02.321Z,4.25
2022-12-19T23:13:28.793Z,4.28
2022-12-19T23:15:56.487Z,4.33
2022-12-19T23:18:23.089Z,4.40
2022-12-19T23:20:49.843Z,4.30
2022-12-19T23:23:16.312Z,4.28
2022-12-19T23:25:42.768Z,4.11
2022-12-19T23:28:09.460Z,4.22
2022-12-19T23:30:36.888Z,4.30
2022-12-19T23:33:04.047Z,4.40
2022-12-19T23:35:32.521Z,4.49
2022-12-19T23:37:58.988Z,4.56
2022-12-19T23:40:25.463Z,4.66
2022-12-19T23:42:51.919Z,4.74
2022-12-19T23:45:18.402Z,4.74
2022-12-19T23:47:46.608Z,4.70
2022-12-19T23:50:13.119Z,4.64
2022-12-19T23:52:39.579Z,4.70
2022-12-19T23:55:06.621Z,4.68
2022-12-19T23:57:33.089Z,4.68
2022-12-19T23:59:59.558Z,4.66
